createdAt,value
2022-07-27T00:00:02.129Z,17.6
2022-07-27T00:20:02.620Z,17.3
2022-07-27T00:40:02.879Z,17.2
2022-07-27T01:00:02.252Z,16.9
2022-07-27T01:20:02.932Z,16.7
2022-07-27T01:40:02.210Z,16.5
2022-07-27T02:00:02.637Z,16
2022-07-27T02:20:03.022Z,15.5
2022-07-27T02:40:02.442Z,15.3
2022-07-27T03:00:02.719Z,15.1
2022-07-27T03:20:02.940Z,15
2022-07-27T03:40:02.110Z,14.7
2022-07-27T04:00:02.304Z,14.7
2022-07-27T04:20:02.917Z,14.4
2022-07-27T04:40:07.092Z,14.6
2022-07-27T05:00:02.295Z,14.8
2022-07-27T05:20:02.670Z,15.1
2022-07-27T05:40:02.994Z,15.9
2022-07-27T06:00:02.296Z,16.2
2022-07-27T06:20:02.618Z,16.1
2022-07-27T06:40:02.898Z,16.6
2022-07-27T07:00:02.123Z,17.7
2022-07-27T07:20:02.591Z,17.5
2022-07-27T08:00:02.192Z,18.1
2022-07-27T08:20:02.679Z,18.5
2022-07-27T09:00:02.920Z,18.3
2022-07-27T09:20:02.189Z,18.5
2022-07-27T09:40:02.519Z,19.2
2022-07-27T10:00:02.845Z,19.2
2022-07-27T10:20:02.066Z,19.9
2022-07-27T10:40:02.371Z,20.7
2022-07-27T11:00:13.513Z,19.6
2022-07-27T11:20:02.146Z,20.7
2022-07-27T11:40:04.216Z,22.3
2022-07-27T12:00:02.954Z,21.6
2022-07-27T12:20:02.357Z,21.1
2022-07-27T12:40:02.527Z,20.7
2022-07-27T13:00:02.867Z,21.7
2022-07-27T13:20:02.077Z,21.6
2022-07-27T13:40:02.437Z,21.5
2022-07-27T14:00:02.993Z,21.3
2022-07-27T14:20:02.332Z,21.2
2022-07-27T14:40:02.642Z,21.1
2022-07-27T15:00:02.817Z,21.2
2022-07-27T15:20:03.034Z,21.2
2022-07-27T15:40:02.218Z,21.2
2022-07-27T16:00:02.483Z,21.5
2022-07-27T16:20:01.993Z,21.2
2022-07-27T16:40:02.314Z,21.5
2022-07-27T17:00:02.485Z,21.2
2022-07-27T17:20:03.083Z,21.3
2022-07-27T18:00:02.264Z,20.8
2022-07-27T18:20:02.726Z,20.7
2022-07-27T18:40:03.044Z,20.4
2022-07-27T19:00:02.353Z,19.8
2022-07-27T19:20:02.747Z,19
2022-07-27T19:40:14.683Z,18.5
2022-07-27T20:00:02.428Z,17.9
2022-07-27T20:20:03.031Z,17.4
2022-07-27T20:40:02.351Z,16.8
2022-07-27T21:00:07.503Z,16.4
2022-07-27T21:20:03.140Z,16.1
2022-07-27T21:40:02.358Z,15.9
2022-07-27T22:00:02.660Z,15.5
2022-07-27T22:20:02.896Z,15.2
2022-07-27T22:40:02.115Z,14.8
2022-07-27T23:00:02.317Z,14.5
2022-07-27T23:20:02.808Z,14.1
